createdAt,value
2023-03-14T00:00:39.145Z,48.17
2023-03-14T00:01:39.165Z,47.92
2023-03-14T00:02:39.487Z,48.11
2023-03-14T00:03:39.418Z,48.18
2023-03-14T00:04:39.112Z,48.34
2023-03-14T00:05:39.106Z,48.22
2023-03-14T00:06:39.097Z,48.36
2023-03-14T00:07:39.123Z,49.57
2023-03-14T00:08:39.149Z,47.99
2023-03-14T00:09:39.088Z,48.00
2023-03-14T00:10:39.073Z,48.03
2023-03-14T00:11:39.073Z,48.28
2023-03-14T00:12:39.061Z,48.12
2023-03-14T00:13:39.089Z,47.91
2023-03-14T00:14:39.041Z,47.96
2023-03-14T00:15:39.059Z,48.67
2023-03-14T00:16:39.032Z,47.94
2023-03-14T00:17:39.019Z,48.70
2023-03-14T00:18:39.037Z,48.24
2023-03-14T00:19:39.025Z,48.32
2023-03-14T00:20:39.000Z,48.45
2023-03-14T00:21:39.007Z,48.08
2023-03-14T00:22:38.988Z,48.57
2023-03-14T00:23:39.016Z,47.54
2023-03-14T00:24:38.985Z,48.11
2023-03-14T00:25:38.965Z,48.65
2023-03-14T00:26:38.961Z,49.12
2023-03-14T00:27:38.969Z,49.29
2023-03-14T00:28:38.959Z,47.93
2023-03-14T00:29:38.957Z,48.86
2023-03-14T00:30:38.929Z,50.21
2023-03-14T00:31:38.974Z,48.23
2023-03-14T00:32:38.990Z,48.31
2023-03-14T00:33:38.947Z,49.06
2023-03-14T00:34:38.906Z,47.83
2023-03-14T00:35:38.988Z,48.53
2023-03-14T00:36:38.891Z,47.54
2023-03-14T00:37:38.885Z,47.76
2023-03-14T00:38:38.898Z,47.56
2023-03-14T00:39:38.875Z,48.50
2023-03-14T00:40:38.862Z,48.27
2023-03-14T00:41:38.874Z,48.15
2023-03-14T00:42:38.844Z,47.45
2023-03-14T00:43:38.871Z,48.02
2023-03-14T00:44:38.835Z,47.54
2023-03-14T00:45:38.836Z,48.87
2023-03-14T00:46:40.659Z,47.75
2023-03-14T00:47:39.814Z,47.83
2023-03-14T00:48:38.843Z,48.25
2023-03-14T00:49:38.813Z,49.68
2023-03-14T00:50:38.797Z,48.17
2023-03-14T00:51:38.786Z,48.11
2023-03-14T00:52:38.780Z,47.73
2023-03-14T00:53:38.797Z,47.56
2023-03-14T00:54:38.775Z,48.03
2023-03-14T00:55:38.765Z,48.76
2023-03-14T00:56:38.750Z,47.57
2023-03-14T00:57:38.750Z,48.00
2023-03-14T00:58:38.771Z,49.00
2023-03-14T00:59:38.736Z,47.72
2023-03-14T01:00:38.742Z,47.93
2023-03-14T01:01:38.755Z,47.81
2023-03-14T01:02:38.730Z,48.28
2023-03-14T01:03:38.734Z,48.36
2023-03-14T01:04:38.742Z,48.51
2023-03-14T01:05:38.701Z,47.72
2023-03-14T01:06:38.691Z,47.61
2023-03-14T01:07:38.687Z,47.96
2023-03-14T01:08:38.702Z,47.57
2023-03-14T01:09:38.669Z,47.86
2023-03-14T01:10:38.659Z,48.90
2023-03-14T01:11:38.656Z,48.20
2023-03-14T01:12:38.647Z,49.46
2023-03-14T01:13:38.665Z,48.37
2023-03-14T01:14:38.637Z,48.12
2023-03-14T01:15:38.623Z,47.67
2023-03-14T01:16:38.673Z,47.62
2023-03-14T01:17:38.611Z,48.71
2023-03-14T01:18:38.632Z,49.33
2023-03-14T01:19:38.613Z,47.58
2023-03-14T01:20:38.593Z,47.76
2023-03-14T01:21:38.584Z,47.63
2023-03-14T01:22:38.578Z,47.80
2023-03-14T01:23:38.663Z,48.43
2023-03-14T01:24:38.567Z,47.55
2023-03-14T01:25:38.598Z,47.47
2023-03-14T01:26:38.549Z,47.70
2023-03-14T01:27:38.569Z,47.65
2023-03-14T01:28:38.585Z,47.66
2023-03-14T01:29:38.519Z,47.49
2023-03-14T01:30:38.521Z,47.53
2023-03-14T01:31:38.575Z,48.19
2023-03-14T01:32:38.556Z,47.53
2023-03-14T01:33:38.544Z,47.72
2023-03-14T01:34:38.489Z,47.97
2023-03-14T01:35:38.519Z,47.71
2023-03-14T01:36:38.488Z,47.96
2023-03-14T01:37:38.476Z,48.77
2023-03-14T01:38:38.472Z,48.40
2023-03-14T01:39:38.485Z,48.21
2023-03-14T01:40:38.443Z,47.28
2023-03-14T01:41:38.535Z,47.60
2023-03-14T01:42:38.436Z,47.84
2023-03-14T01:43:38.458Z,48.86
2023-03-14T01:44:38.431Z,49.75
2023-03-14T01:45:38.480Z,48.20
2023-03-14T01:46:38.422Z,47.85
2023-03-14T01:47:38.428Z,47.59
2023-03-14T01:48:38.392Z,48.68
2023-03-14T01:49:38.409Z,47.75
2023-03-14T01:50:38.378Z,48.24
2023-03-14T01:51:38.377Z,49.06
2023-03-14T01:52:38.370Z,48.75
2023-03-14T01:53:39.357Z,47.94
2023-03-14T01:54:38.378Z,48.68
2023-03-14T01:55:38.360Z,48.51
2023-03-14T01:56:38.346Z,48.44
2023-03-14T01:57:38.340Z,48.20
2023-03-14T01:58:38.329Z,48.51
2023-03-14T01:59:38.361Z,47.67
2023-03-14T02:00:38.359Z,48.13
2023-03-14T02:01:38.308Z,48.35
2023-03-14T02:02:38.300Z,49.43
2023-03-14T02:03:38.352Z,48.35
2023-03-14T02:04:38.303Z,48.51
2023-03-14T02:05:38.274Z,48.87
2023-03-14T02:06:38.285Z,47.95
2023-03-14T02:07:38.259Z,48.02
2023-03-14T02:08:38.257Z,48.12
2023-03-14T02:09:38.259Z,48.31
2023-03-14T02:10:38.243Z,48.05
2023-03-14T02:11:38.240Z,48.52
2023-03-14T02:12:38.230Z,48.35
2023-03-14T02:13:38.210Z,48.08
2023-03-14T02:14:38.255Z,48.20
2023-03-14T02:15:38.199Z,48.07
2023-03-14T02:16:38.341Z,48.01
2023-03-14T02:17:39.183Z,47.94
2023-03-14T02:18:38.179Z,49.12
2023-03-14T02:19:38.181Z,49.61
2023-03-14T02:20:38.217Z,55.52
2023-03-14T02:21:38.170Z,54.30
2023-03-14T02:22:38.165Z,48.31
2023-03-14T02:23:38.145Z,47.46
2023-03-14T02:24:38.412Z,49.19
2023-03-14T02:25:38.144Z,47.26
2023-03-14T02:26:38.128Z,51.17
2023-03-14T02:27:38.123Z,49.07
2023-03-14T02:28:38.108Z,50.70
2023-03-14T02:29:38.114Z,47.94
2023-03-14T02:30:38.093Z,48.35
2023-03-14T02:31:38.128Z,49.50
2023-03-14T02:32:39.163Z,47.47
2023-03-14T02:33:38.081Z,50.25
2023-03-14T02:34:38.096Z,48.96
2023-03-14T02:35:38.088Z,48.40
2023-03-14T02:36:38.052Z,50.20
2023-03-14T02:37:38.060Z,50.64
2023-03-14T02:38:38.091Z,48.28
2023-03-14T02:39:38.057Z,49.35
2023-03-14T02:40:38.033Z,48.49
2023-03-14T02:41:38.033Z,48.71
2023-03-14T02:42:38.023Z,52.52
2023-03-14T02:43:38.075Z,50.35
2023-03-14T02:44:38.049Z,50.38
2023-03-14T02:45:38.006Z,49.73
2023-03-14T02:46:37.986Z,53.24
2023-03-14T02:47:37.991Z,53.26
2023-03-14T02:48:37.996Z,56.91
2023-03-14T02:49:37.978Z,56.49
2023-03-14T02:50:37.957Z,57.29
2023-03-14T02:51:37.953Z,58.52
2023-03-14T02:52:37.949Z,52.12
2023-03-14T02:53:37.940Z,53.52
2023-03-14T02:54:37.960Z,49.21
2023-03-14T02:55:37.930Z,51.21
2023-03-14T02:56:37.933Z,51.11
2023-03-14T02:57:37.910Z,48.23
2023-03-14T02:58:37.902Z,49.63
2023-03-14T02:59:38.275Z,50.56
2023-03-14T03:00:38.897Z,52.29
2023-03-14T03:01:37.891Z,52.61
2023-03-14T03:02:37.878Z,52.37
2023-03-14T03:03:37.950Z,51.04
2023-03-14T03:04:37.876Z,53.35
2023-03-14T03:05:37.854Z,53.37
2023-03-14T03:06:37.843Z,50.28
2023-03-14T03:07:37.838Z,54.96
2023-03-14T03:08:37.845Z,50.59
2023-03-14T03:09:37.844Z,49.93
2023-03-14T03:10:37.910Z,50.07
2023-03-14T03:11:37.809Z,49.08
2023-03-14T03:12:37.801Z,56.94
2023-03-14T03:13:37.793Z,56.73
2023-03-14T03:14:37.809Z,49.48
2023-03-14T03:15:37.784Z,53.15
2023-03-14T03:16:37.816Z,52.95
2023-03-14T03:17:37.771Z,51.20
2023-03-14T03:18:37.769Z,53.11
2023-03-14T03:19:37.776Z,53.20
2023-03-14T03:20:37.761Z,51.38
2023-03-14T03:21:37.744Z,54.66
2023-03-14T03:22:37.753Z,55.02
2023-03-14T03:23:37.741Z,55.82
2023-03-14T03:24:37.740Z,55.34
2023-03-14T03:25:37.715Z,50.11
2023-03-14T03:26:37.713Z,51.81
2023-03-14T03:27:37.700Z,54.32
2023-03-14T03:28:37.702Z,57.91
2023-03-14T03:29:37.724Z,54.28
2023-03-14T03:30:37.709Z,52.44
2023-03-14T03:31:37.720Z,49.76
2023-03-14T03:32:37.755Z,49.80
2023-03-14T03:33:37.677Z,49.47
2023-03-14T03:34:37.675Z,48.72
2023-03-14T03:35:37.685Z,48.86
2023-03-14T03:36:37.655Z,53.40
2023-03-14T03:37:37.640Z,49.05
2023-03-14T03:38:37.640Z,50.15
2023-03-14T03:39:37.661Z,50.14
2023-03-14T03:40:37.627Z,49.30
2023-03-14T03:41:37.615Z,49.07
2023-03-14T03:42:37.614Z,51.39
2023-03-14T03:43:37.635Z,49.95
2023-03-14T03:44:37.607Z,51.82
2023-03-14T03:45:37.600Z,53.40
2023-03-14T03:46:37.586Z,51.94
2023-03-14T03:47:37.594Z,49.97
2023-03-14T03:48:37.581Z,50.92
2023-03-14T03:49:37.587Z,51.00
2023-03-14T03:50:37.561Z,54.63
2023-03-14T03:51:37.552Z,53.58
2023-03-14T03:52:37.545Z,55.92
2023-03-14T03:53:37.547Z,54.13
2023-03-14T03:54:37.552Z,51.71
2023-03-14T03:55:37.529Z,56.25
2023-03-14T03:56:37.520Z,50.37
2023-03-14T03:57:37.518Z,55.90
2023-03-14T03:58:37.508Z,49.66
2023-03-14T03:59:37.915Z,50.39
2023-03-14T04:00:37.522Z,51.87
2023-03-14T04:01:37.529Z,49.56
2023-03-14T04:02:37.534Z,50.35
2023-03-14T04:03:37.546Z,49.26
2023-03-14T04:04:37.603Z,50.19
2023-03-14T04:05:37.535Z,51.26
2023-03-14T04:06:37.566Z,54.20
2023-03-14T04:07:37.506Z,52.73
2023-03-14T04:08:37.535Z,49.51
2023-03-14T04:09:37.561Z,52.09
2023-03-14T04:10:37.434Z,51.20
2023-03-14T04:11:37.426Z,55.74
2023-03-14T04:12:37.510Z,52.69
2023-03-14T04:13:37.420Z,51.38
2023-03-14T04:14:37.406Z,54.68
2023-03-14T04:15:37.464Z,49.92
2023-03-14T04:16:37.443Z,51.42
2023-03-14T04:17:37.464Z,52.40
2023-03-14T04:18:37.443Z,52.05
2023-03-14T04:19:37.617Z,51.34
2023-03-14T04:20:37.373Z,51.00
2023-03-14T04:21:38.167Z,48.80
2023-03-14T04:22:37.358Z,51.15
2023-03-14T04:23:37.403Z,51.36
2023-03-14T04:24:37.379Z,56.58
2023-03-14T04:25:37.367Z,50.06
2023-03-14T04:26:37.341Z,52.48
2023-03-14T04:27:37.385Z,52.82
2023-03-14T04:28:37.314Z,50.12
2023-03-14T04:29:37.348Z,51.38
2023-03-14T04:30:38.917Z,51.01
2023-03-14T04:31:37.361Z,50.72
2023-03-14T04:32:37.381Z,48.67
2023-03-14T04:33:37.275Z,49.18
2023-03-14T04:34:37.268Z,50.24
2023-03-14T04:35:37.437Z,50.06
2023-03-14T04:36:39.780Z,50.50
2023-03-14T04:37:38.228Z,51.25
2023-03-14T04:38:37.222Z,55.68
2023-03-14T04:39:37.251Z,53.40
2023-03-14T04:40:37.221Z,50.68
2023-03-14T04:41:37.219Z,50.38
2023-03-14T04:42:37.208Z,52.95
2023-03-14T04:43:37.212Z,50.47
2023-03-14T04:44:37.216Z,50.25
2023-03-14T04:45:37.174Z,50.09
2023-03-14T04:46:37.238Z,51.30
2023-03-14T04:47:37.162Z,49.10
2023-03-14T04:48:37.153Z,50.40
2023-03-14T04:49:37.195Z,49.26
2023-03-14T04:50:38.144Z,50.04
2023-03-14T04:51:37.182Z,51.85
2023-03-14T04:52:37.155Z,51.12
2023-03-14T04:53:37.153Z,50.17
2023-03-14T04:54:37.143Z,52.03
2023-03-14T04:55:37.137Z,51.50
2023-03-14T04:56:37.093Z,52.34
2023-03-14T04:57:39.159Z,52.96
2023-03-14T04:58:37.098Z,52.72
2023-03-14T04:59:37.095Z,52.49
2023-03-14T05:00:39.719Z,52.47
2023-03-14T05:01:38.080Z,50.48
2023-03-14T05:02:38.084Z,51.61
2023-03-14T05:03:37.067Z,55.82
2023-03-14T05:04:37.065Z,51.41
2023-03-14T05:05:37.037Z,49.98
2023-03-14T05:06:37.040Z,50.49
2023-03-14T05:07:37.030Z,52.31
2023-03-14T05:08:37.009Z,51.64
2023-03-14T05:09:37.025Z,52.13
2023-03-14T05:10:36.987Z,51.55
2023-03-14T05:11:38.016Z,53.27
2023-03-14T05:12:36.990Z,52.38
2023-03-14T05:13:39.200Z,52.84
2023-03-14T05:14:36.985Z,52.38
2023-03-14T05:15:36.985Z,51.60
2023-03-14T05:16:36.981Z,52.97
2023-03-14T05:17:36.952Z,51.31
2023-03-14T05:18:36.937Z,52.95
2023-03-14T05:19:36.939Z,52.77
2023-03-14T05:20:36.948Z,51.08
2023-03-14T05:21:36.924Z,50.94
2023-03-14T05:22:36.919Z,53.79
2023-03-14T05:23:36.910Z,53.41
2023-03-14T05:24:36.913Z,55.10
2023-03-14T05:25:37.201Z,52.69
2023-03-14T05:26:36.884Z,53.29
2023-03-14T05:27:36.884Z,54.05
2023-03-14T05:28:36.895Z,52.90
2023-03-14T05:29:36.873Z,57.14
2023-03-14T05:30:36.889Z,56.37
2023-03-14T05:31:36.877Z,52.61
2023-03-14T05:32:36.882Z,56.35
2023-03-14T05:33:36.846Z,54.18
2023-03-14T05:34:36.824Z,54.40
2023-03-14T05:35:36.873Z,51.76
2023-03-14T05:36:36.834Z,53.56
2023-03-14T05:37:36.815Z,54.45
2023-03-14T05:38:36.810Z,54.10
2023-03-14T05:39:36.821Z,56.62
2023-03-14T05:40:36.834Z,57.06
2023-03-14T05:41:36.787Z,53.54
2023-03-14T05:42:36.794Z,53.82
2023-03-14T05:43:36.780Z,56.67
2023-03-14T05:44:36.772Z,54.85
2023-03-14T05:45:36.835Z,55.54
2023-03-14T05:46:36.778Z,53.51
2023-03-14T05:47:36.749Z,56.93
2023-03-14T05:48:36.747Z,56.85
2023-03-14T05:49:36.733Z,54.64
2023-03-14T05:50:36.742Z,54.78
2023-03-14T05:51:36.724Z,54.52
2023-03-14T05:52:36.710Z,57.24
2023-03-14T05:53:36.712Z,56.23
2023-03-14T05:54:36.713Z,56.44
2023-03-14T05:55:36.723Z,54.84
2023-03-14T05:56:36.702Z,61.91
2023-03-14T05:57:36.674Z,56.30
2023-03-14T05:58:36.682Z,54.07
2023-03-14T05:59:36.668Z,54.35
2023-03-14T06:00:36.675Z,55.61
2023-03-14T06:01:36.648Z,55.27
2023-03-14T06:02:36.639Z,56.29
2023-03-14T06:03:36.718Z,57.50
2023-03-14T06:04:36.636Z,56.84
2023-03-14T06:05:36.657Z,54.75
2023-03-14T06:06:36.624Z,58.37
2023-03-14T06:07:36.614Z,54.70
2023-03-14T06:08:36.637Z,57.52
2023-03-14T06:09:36.714Z,55.75
2023-03-14T06:10:36.612Z,58.13
2023-03-14T06:11:36.602Z,52.68
2023-03-14T06:12:36.603Z,55.66
2023-03-14T06:13:36.578Z,54.78
2023-03-14T06:14:36.563Z,54.65
2023-03-14T06:15:36.576Z,58.19
2023-03-14T06:16:36.600Z,58.07
2023-03-14T06:17:36.539Z,54.88
2023-03-14T06:18:36.530Z,55.23
2023-03-14T06:19:36.529Z,54.49
2023-03-14T06:20:36.570Z,55.54
2023-03-14T06:21:36.514Z,54.35
2023-03-14T06:22:36.512Z,60.64
2023-03-14T06:23:36.512Z,56.29
2023-03-14T06:24:36.495Z,56.59
2023-03-14T06:25:36.516Z,54.82
2023-03-14T06:26:36.485Z,59.45
2023-03-14T06:27:36.538Z,55.77
2023-03-14T06:28:36.473Z,58.87
2023-03-14T06:29:36.460Z,56.30
2023-03-14T06:30:36.499Z,57.18
2023-03-14T06:31:36.452Z,55.17
2023-03-14T06:32:36.512Z,54.83
2023-03-14T06:33:36.433Z,55.11
2023-03-14T06:34:36.449Z,55.16
2023-03-14T06:35:36.484Z,56.05
2023-03-14T06:36:36.425Z,59.33
2023-03-14T06:37:36.420Z,53.15
2023-03-14T06:38:36.403Z,56.42
2023-03-14T06:39:36.389Z,56.40
2023-03-14T06:40:36.413Z,55.42
2023-03-14T06:41:36.389Z,54.48
2023-03-14T06:42:36.376Z,54.94
2023-03-14T06:43:36.373Z,56.14
2023-03-14T06:44:36.373Z,57.77
2023-03-14T06:45:36.368Z,56.31
2023-03-14T06:46:36.351Z,56.35
2023-03-14T06:47:36.346Z,53.23
2023-03-14T06:48:36.338Z,57.15
2023-03-14T06:49:36.332Z,55.35
2023-03-14T06:50:36.362Z,54.31
2023-03-14T06:51:36.312Z,51.84
2023-03-14T06:52:36.339Z,51.58
2023-03-14T06:53:36.301Z,56.28
2023-03-14T06:54:36.301Z,53.99
2023-03-14T06:55:36.305Z,54.52
2023-03-14T06:56:36.285Z,53.25
2023-03-14T06:57:36.280Z,55.02
2023-03-14T06:58:36.271Z,56.97
2023-03-14T06:59:36.263Z,50.49
2023-03-14T07:00:36.286Z,53.96
2023-03-14T07:01:36.429Z,52.83
2023-03-14T07:02:43.116Z,54.74
2023-03-14T07:03:38.231Z,53.71
2023-03-14T07:04:36.298Z,51.10
2023-03-14T07:05:36.249Z,53.96
2023-03-14T07:06:36.220Z,54.10
2023-03-14T07:07:36.205Z,54.39
2023-03-14T07:08:36.196Z,55.49
2023-03-14T07:09:36.195Z,51.41
2023-03-14T07:10:36.201Z,52.10
2023-03-14T07:11:36.174Z,54.81
2023-03-14T07:12:36.173Z,53.96
2023-03-14T07:13:36.170Z,54.06
2023-03-14T07:14:36.182Z,53.93
2023-03-14T07:15:36.246Z,53.95
2023-03-14T07:16:36.159Z,52.67
2023-03-14T07:17:37.036Z,52.67
2023-03-14T07:18:36.137Z,53.73
2023-03-14T07:19:36.165Z,52.86
2023-03-14T07:20:36.145Z,53.88
2023-03-14T07:21:36.122Z,53.77
2023-03-14T07:22:36.117Z,53.19
2023-03-14T07:23:36.112Z,53.57
2023-03-14T07:24:36.097Z,52.87
2023-03-14T07:25:36.105Z,51.11
2023-03-14T07:26:36.090Z,51.15
2023-03-14T07:27:36.067Z,51.59
2023-03-14T07:28:36.074Z,53.47
2023-03-14T07:29:36.060Z,55.18
2023-03-14T07:30:36.078Z,53.64
2023-03-14T07:31:36.045Z,52.46
2023-03-14T07:32:36.065Z,52.47
2023-03-14T07:33:36.023Z,53.35
2023-03-14T07:34:37.031Z,53.81
2023-03-14T07:35:36.087Z,52.68
2023-03-14T07:36:36.004Z,53.85
2023-03-14T07:37:36.013Z,53.44
2023-03-14T07:38:35.999Z,51.66
2023-03-14T07:39:35.993Z,51.62
2023-03-14T07:40:35.999Z,52.18
2023-03-14T07:41:35.994Z,53.77
2023-03-14T07:42:35.996Z,54.89
2023-03-14T07:43:35.966Z,53.22
2023-03-14T07:44:35.986Z,53.32
2023-03-14T07:45:42.423Z,53.15
2023-03-14T07:46:38.013Z,54.20
2023-03-14T07:47:35.939Z,54.00
2023-03-14T07:48:35.947Z,55.07
2023-03-14T07:49:35.930Z,54.21
2023-03-14T07:50:35.937Z,54.32
2023-03-14T07:51:35.917Z,55.08
2023-03-14T07:52:35.904Z,52.01
2023-03-14T07:53:35.901Z,52.79
2023-03-14T07:54:35.894Z,52.89
2023-03-14T07:55:35.906Z,53.75
2023-03-14T07:56:35.877Z,55.56
2023-03-14T07:57:35.886Z,52.97
2023-03-14T07:58:35.858Z,53.95
2023-03-14T07:59:35.859Z,58.42
2023-03-14T08:00:35.883Z,55.02
2023-03-14T08:01:35.849Z,54.87
2023-03-14T08:02:35.881Z,56.13
2023-03-14T08:03:35.890Z,55.98
2023-03-14T08:04:35.822Z,54.06
2023-03-14T08:05:36.133Z,51.60
2023-03-14T08:06:35.802Z,56.47
2023-03-14T08:07:35.826Z,56.53
2023-03-14T08:08:35.825Z,56.46
2023-03-14T08:09:35.791Z,55.99
2023-03-14T08:10:35.813Z,57.90
2023-03-14T08:11:35.784Z,58.57
2023-03-14T08:12:35.768Z,58.96
2023-03-14T08:13:35.778Z,54.28
2023-03-14T08:14:35.753Z,54.21
2023-03-14T08:15:35.755Z,55.56
2023-03-14T08:16:35.798Z,50.86
2023-03-14T08:17:35.745Z,52.82
2023-03-14T08:18:35.726Z,55.98
2023-03-14T08:19:35.760Z,56.05
2023-03-14T08:20:35.750Z,55.11
2023-03-14T08:21:35.704Z,53.00
2023-03-14T08:22:35.703Z,52.62
2023-03-14T08:23:35.700Z,56.71
2023-03-14T08:24:35.714Z,53.05
2023-03-14T08:25:35.723Z,53.51
2023-03-14T08:26:35.716Z,50.64
2023-03-14T08:27:35.685Z,51.45
2023-03-14T08:28:35.667Z,54.11
2023-03-14T08:29:35.674Z,51.38
2023-03-14T08:30:35.702Z,53.81
2023-03-14T08:31:35.712Z,55.03
2023-03-14T08:32:35.669Z,54.87
2023-03-14T08:33:35.653Z,52.45
2023-03-14T08:34:35.745Z,55.82
2023-03-14T08:35:35.631Z,56.95
2023-03-14T08:36:35.691Z,53.74
2023-03-14T08:37:35.628Z,57.25
2023-03-14T08:38:35.595Z,57.90
2023-03-14T08:39:35.610Z,54.38
2023-03-14T08:40:35.641Z,52.19
2023-03-14T08:41:35.604Z,53.54
2023-03-14T08:42:35.580Z,55.98
2023-03-14T08:43:35.698Z,54.44
2023-03-14T08:44:35.636Z,54.19
2023-03-14T08:45:37.956Z,52.41
2023-03-14T08:46:35.618Z,57.15
2023-03-14T08:47:35.538Z,49.37
2023-03-14T08:48:35.536Z,50.93
2023-03-14T08:49:35.525Z,53.53
2023-03-14T08:50:35.536Z,54.23
2023-03-14T08:51:35.544Z,54.83
2023-03-14T08:52:35.547Z,54.94
2023-03-14T08:53:35.515Z,56.70
2023-03-14T08:54:35.498Z,54.92
2023-03-14T08:55:35.481Z,54.69
2023-03-14T08:56:35.495Z,54.48
2023-03-14T08:57:35.458Z,54.87
2023-03-14T08:58:35.458Z,56.54
2023-03-14T08:59:35.487Z,54.23
2023-03-14T09:00:35.447Z,54.90
2023-03-14T09:01:35.522Z,52.19
2023-03-14T09:02:35.438Z,54.21
2023-03-14T09:03:35.427Z,53.86
2023-03-14T09:04:35.465Z,54.85
2023-03-14T09:05:35.416Z,53.82
2023-03-14T09:06:35.443Z,53.81
2023-03-14T09:07:35.403Z,53.08
2023-03-14T09:08:37.257Z,51.36
2023-03-14T09:09:35.412Z,52.97
2023-03-14T09:10:35.372Z,55.63
2023-03-14T09:11:35.396Z,54.78
2023-03-14T09:12:35.388Z,51.76
2023-03-14T09:13:35.357Z,56.18
2023-03-14T09:14:35.362Z,54.16
2023-03-14T09:15:35.350Z,53.55
2023-03-14T09:16:35.397Z,53.18
2023-03-14T09:17:35.340Z,54.20
2023-03-14T09:18:35.419Z,57.71
2023-03-14T09:19:35.317Z,56.34
2023-03-14T09:20:35.316Z,53.97
2023-03-14T09:21:35.331Z,53.21
2023-03-14T09:22:35.300Z,52.81
2023-03-14T09:23:36.309Z,53.20
2023-03-14T09:24:35.278Z,53.37
2023-03-14T09:25:35.268Z,53.72
2023-03-14T09:26:35.282Z,52.09
2023-03-14T09:27:35.287Z,55.01
2023-03-14T09:28:35.252Z,52.89
2023-03-14T09:29:35.257Z,56.35
2023-03-14T09:30:35.237Z,51.37
2023-03-14T09:31:35.281Z,53.18
2023-03-14T09:32:35.233Z,52.99
2023-03-14T09:33:35.224Z,54.66
2023-03-14T09:34:36.848Z,53.50
2023-03-14T09:35:36.273Z,51.48
2023-03-14T09:36:35.216Z,50.61
2023-03-14T09:37:35.196Z,52.11
2023-03-14T09:38:35.188Z,53.80
2023-03-14T09:39:35.188Z,52.90
2023-03-14T09:40:35.179Z,53.41
2023-03-14T09:41:35.189Z,51.04
2023-03-14T09:42:35.179Z,51.71
2023-03-14T09:43:35.176Z,53.69
2023-03-14T09:44:35.162Z,52.14
2023-03-14T09:45:35.154Z,53.32
2023-03-14T09:46:35.159Z,52.03
2023-03-14T09:47:35.814Z,55.36
2023-03-14T09:48:36.117Z,54.64
2023-03-14T09:49:35.123Z,54.59
2023-03-14T09:50:35.095Z,52.58
2023-03-14T09:51:35.119Z,50.80
2023-03-14T09:52:35.108Z,56.51
2023-03-14T09:53:35.081Z,55.30
2023-03-14T09:54:35.084Z,52.01
2023-03-14T09:55:36.678Z,53.66
2023-03-14T09:56:36.101Z,52.83
2023-03-14T09:57:35.049Z,53.74
2023-03-14T09:58:35.037Z,55.22
2023-03-14T09:59:35.034Z,53.05
2023-03-14T10:00:35.025Z,55.28
2023-03-14T10:01:35.099Z,52.41
2023-03-14T10:02:35.006Z,52.64
2023-03-14T10:03:35.014Z,54.44
2023-03-14T10:04:35.160Z,59.29
2023-03-14T10:05:35.019Z,56.88
2023-03-14T10:06:35.005Z,53.41
2023-03-14T10:07:34.988Z,53.57
2023-03-14T10:08:34.972Z,54.18
2023-03-14T10:09:34.965Z,51.70
2023-03-14T10:10:34.981Z,54.21
2023-03-14T10:11:34.973Z,52.11
2023-03-14T10:12:35.019Z,54.77
2023-03-14T10:13:34.936Z,52.81
2023-03-14T10:14:34.935Z,51.99
2023-03-14T10:15:34.934Z,50.89
2023-03-14T10:16:34.936Z,53.52
2023-03-14T10:17:34.938Z,51.45
2023-03-14T10:18:34.898Z,53.09
2023-03-14T10:19:34.928Z,51.19
2023-03-14T10:20:34.965Z,54.23
2023-03-14T10:21:34.896Z,53.84
2023-03-14T10:22:34.882Z,52.13
2023-03-14T10:23:34.865Z,51.54
2023-03-14T10:24:34.862Z,55.10
2023-03-14T10:25:34.857Z,53.46
2023-03-14T10:26:34.888Z,54.37
2023-03-14T10:27:35.864Z,50.90
2023-03-14T10:28:34.872Z,54.30
2023-03-14T10:29:34.839Z,52.23
2023-03-14T10:30:34.845Z,52.63
2023-03-14T10:31:34.828Z,52.72
2023-03-14T10:32:34.852Z,54.27
2023-03-14T10:33:34.805Z,55.06
2023-03-14T10:34:34.804Z,55.47
2023-03-14T10:35:34.830Z,53.82
2023-03-14T10:36:34.963Z,53.07
2023-03-14T10:37:34.959Z,56.63
2023-03-14T10:38:34.772Z,51.07
2023-03-14T10:39:34.776Z,50.94
2023-03-14T10:40:34.770Z,53.52
2023-03-14T10:41:34.746Z,54.14
2023-03-14T10:42:34.774Z,55.53
2023-03-14T10:43:34.744Z,56.83
2023-03-14T10:44:34.753Z,54.55
2023-03-14T10:45:34.725Z,57.85
2023-03-14T10:46:34.796Z,51.73
2023-03-14T10:47:34.736Z,51.17
2023-03-14T10:48:34.702Z,54.25
2023-03-14T10:49:34.715Z,51.23
2023-03-14T10:50:34.701Z,54.98
2023-03-14T10:51:34.686Z,51.83
2023-03-14T10:52:57.762Z,53.96
2023-03-14T10:53:36.674Z,52.02
2023-03-14T10:54:34.663Z,53.02
2023-03-14T10:55:34.664Z,52.92
2023-03-14T10:56:34.658Z,51.58
2023-03-14T10:57:34.683Z,52.95
2023-03-14T10:58:34.639Z,51.18
2023-03-14T10:59:34.642Z,52.32
2023-03-14T11:00:34.636Z,52.50
2023-03-14T11:01:34.714Z,51.09
2023-03-14T11:02:34.635Z,54.95
2023-03-14T11:03:34.608Z,54.77
2023-03-14T11:04:34.651Z,55.74
2023-03-14T11:05:34.602Z,54.69
2023-03-14T11:06:34.584Z,53.02
2023-03-14T11:07:34.605Z,55.14
2023-03-14T11:08:34.579Z,52.63
2023-03-14T11:09:34.586Z,51.76
2023-03-14T11:10:34.558Z,55.03
2023-03-14T11:11:34.557Z,53.82
2023-03-14T11:12:34.587Z,56.73
2023-03-14T11:13:34.543Z,56.76
2023-03-14T11:14:34.540Z,57.96
2023-03-14T11:15:34.616Z,55.68
2023-03-14T11:16:34.515Z,53.77
2023-03-14T11:17:34.519Z,57.21
2023-03-14T11:18:34.505Z,55.91
2023-03-14T11:19:35.685Z,54.54
2023-03-14T11:20:35.506Z,56.57
2023-03-14T11:21:34.484Z,52.70
2023-03-14T11:22:34.497Z,51.61
2023-03-14T11:23:34.464Z,51.02
2023-03-14T11:24:34.467Z,51.67
2023-03-14T11:25:34.464Z,56.00
2023-03-14T11:26:34.448Z,53.86
2023-03-14T11:27:34.472Z,52.02
2023-03-14T11:28:34.471Z,55.49
2023-03-14T11:29:34.457Z,53.59
2023-03-14T11:30:34.442Z,52.22
2023-03-14T11:31:34.460Z,50.63
2023-03-14T11:32:34.447Z,51.97
2023-03-14T11:33:34.464Z,54.29
2023-03-14T11:34:34.408Z,51.94
2023-03-14T11:35:34.414Z,51.87
2023-03-14T11:36:34.377Z,53.09
2023-03-14T11:37:34.396Z,54.45
2023-03-14T11:38:34.388Z,52.93
2023-03-14T11:39:34.360Z,52.90
2023-03-14T11:40:34.361Z,52.10
2023-03-14T11:41:34.352Z,52.86
2023-03-14T11:42:34.359Z,54.45
2023-03-14T11:43:34.336Z,53.21
2023-03-14T11:44:34.329Z,52.90
2023-03-14T11:45:34.342Z,55.70
2023-03-14T11:46:34.378Z,55.34
2023-03-14T11:47:34.317Z,54.82
2023-03-14T11:48:34.299Z,52.14
2023-03-14T11:49:34.291Z,52.61
2023-03-14T11:50:34.326Z,52.02
2023-03-14T11:51:34.363Z,49.58
2023-03-14T11:52:34.308Z,53.42
2023-03-14T11:53:34.271Z,53.43
2023-03-14T11:54:34.295Z,52.76
2023-03-14T11:55:34.264Z,53.76
2023-03-14T11:56:34.239Z,53.46
2023-03-14T11:57:34.261Z,54.77
2023-03-14T11:58:34.229Z,52.03
2023-03-14T11:59:34.242Z,50.87
2023-03-14T12:00:34.213Z,53.64
2023-03-14T12:01:34.250Z,54.52
2023-03-14T12:02:34.214Z,52.68
2023-03-14T12:03:34.192Z,55.71
2023-03-14T12:04:34.193Z,55.55
2023-03-14T12:05:34.176Z,55.37
2023-03-14T12:06:34.730Z,54.28
2023-03-14T12:07:34.180Z,54.59
2023-03-14T12:08:34.154Z,55.78
2023-03-14T12:09:34.151Z,53.84
2023-03-14T12:10:34.137Z,55.69
2023-03-14T12:11:34.129Z,54.29
2023-03-14T12:12:34.165Z,54.35
2023-03-14T12:13:34.122Z,54.34
2023-03-14T12:14:34.114Z,55.42
2023-03-14T12:15:34.110Z,53.43
2023-03-14T12:16:34.162Z,52.08
2023-03-14T12:17:34.110Z,51.38
2023-03-14T12:18:34.174Z,60.15
2023-03-14T12:19:34.083Z,53.20
2023-03-14T12:20:34.069Z,52.10
2023-03-14T12:21:34.082Z,51.37
2023-03-14T12:22:34.051Z,54.55
2023-03-14T12:23:34.076Z,54.50
2023-03-14T12:24:34.056Z,53.23
2023-03-14T12:25:34.031Z,52.16
2023-03-14T12:26:34.022Z,51.80
2023-03-14T12:27:34.014Z,52.44
2023-03-14T12:28:34.044Z,52.25
2023-03-14T12:29:34.199Z,51.93
2023-03-14T12:30:34.016Z,52.13
2023-03-14T12:31:34.012Z,51.04
2023-03-14T12:32:34.045Z,52.61
2023-03-14T12:33:34.011Z,50.28
2023-03-14T12:34:33.991Z,52.13
2023-03-14T12:35:34.032Z,49.91
2023-03-14T12:36:33.960Z,49.04
2023-03-14T12:37:33.962Z,50.48
2023-03-14T12:38:33.967Z,52.12
2023-03-14T12:39:33.948Z,50.15
2023-03-14T12:40:33.977Z,48.65
2023-03-14T12:41:33.932Z,49.88
2023-03-14T12:42:44.473Z,50.15
2023-03-14T12:43:35.949Z,50.48
2023-03-14T12:44:33.904Z,53.97
2023-03-14T12:45:33.973Z,50.61
2023-03-14T12:46:33.924Z,51.35
2023-03-14T12:47:33.903Z,53.38
2023-03-14T12:48:33.897Z,49.14
2023-03-14T12:49:33.880Z,50.36
2023-03-14T12:50:34.160Z,49.65
2023-03-14T12:51:33.854Z,50.41
2023-03-14T12:52:33.864Z,52.19